sensor_id;sensor_type;location;lat;lon;timestamp;pressure;altitude;pressure_sealevel;temperature;humidity
64340;BME280;50674;53.290;-9.080;2022-07-06T00:01:39;103216.88;;;17.46;88.82
64340;BME280;50674;53.290;-9.080;2022-07-06T00:04:06;103228.28;;;17.51;88.72
64340;BME280;50674;53.290;-9.080;2022-07-06T00:06:32;103234.53;;;17.51;88.73
64340;BME280;50674;53.290;-9.080;2022-07-06T00:08:58;103228.16;;;17.52;88.69
64340;BME280;50674;53.290;-9.080;2022-07-06T00:11:24;103223.75;;;17.51;88.80
64340;BME280;50674;53.290;-9.080;2022-07-06T00:13:51;103222.00;;;17.50;88.65
64340;BME280;50674;53.290;-9.080;2022-07-06T00:16:17;103231.84;;;17.51;88.59
64340;BME280;50674;53.290;-9.080;2022-07-06T00:18:43;103228.78;;;17.43;88.61
64340;BME280;50674;53.290;-9.080;2022-07-06T00:21:09;103206.19;;;17.44;88.61
64340;BME280;50674;53.290;-9.080;2022-07-06T00:23:35;103208.91;;;17.44;88.63
64340;BME280;50674;53.290;-9.080;2022-07-06T00:26:01;103203.69;;;17.41;88.56
64340;BME280;50674;53.290;-9.080;2022-07-06T00:28:27;103199.34;;;17.38;88.64
64340;BME280;50674;53.290;-9.080;2022-07-06T00:30:53;103201.38;;;17.35;88.67
64340;BME280;50674;53.290;-9.080;2022-07-06T00:33:20;103207.88;;;17.32;88.76
64340;BME280;50674;53.290;-9.080;2022-07-06T00:35:46;103205.25;;;17.31;88.77
64340;BME280;50674;53.290;-9.080;2022-07-06T00:38:13;103189.84;;;17.33;88.75
64340;BME280;50674;53.290;-9.080;2022-07-06T00:40:40;103205.44;;;17.28;88.66
64340;BME280;50674;53.290;-9.080;2022-07-06T00:43:06;103183.84;;;17.28;88.72
64340;BME280;50674;53.290;-9.080;2022-07-06T00:45:32;103185.03;;;17.24;88.62
64340;BME280;50674;53.290;-9.080;2022-07-06T00:47:57;103180.41;;;17.26;88.60
64340;BME280;50674;53.290;-9.080;2022-07-06T00:50:23;103175.00;;;17.26;88.73
64340;BME280;50674;53.290;-9.080;2022-07-06T00:52:52;103181.47;;;17.23;88.55
64340;BME280;50674;53.290;-9.080;2022-07-06T00:55:22;103185.88;;;17.24;88.64
64340;BME280;50674;53.290;-9.080;2022-07-06T00:57:49;103192.25;;;17.23;88.92
64340;BME280;50674;53.290;-9.080;2022-07-06T01:00:17;103166.25;;;17.22;88.85
64340;BME280;50674;53.290;-9.080;2022-07-06T01:02:43;103158.16;;;17.22;88.61
64340;BME280;50674;53.290;-9.080;2022-07-06T01:05:11;103164.09;;;17.27;88.83
64340;BME280;50674;53.290;-9.080;2022-07-06T01:07:42;103166.38;;;17.21;89.10
64340;BME280;50674;53.290;-9.080;2022-07-06T01:10:10;103174.03;;;17.27;89.09
64340;BME280;50674;53.290;-9.080;2022-07-06T01:12:38;103171.53;;;17.24;89.13
64340;BME280;50674;53.290;-9.080;2022-07-06T01:15:08;103167.78;;;17.26;89.00
64340;BME280;50674;53.290;-9.080;2022-07-06T01:17:34;103169.63;;;17.26;88.96
64340;BME280;50674;53.290;-9.080;2022-07-06T01:20:12;103172.31;;;17.26;89.11
64340;BME280;50674;53.290;-9.080;2022-07-06T01:22:38;103176.94;;;17.24;88.89
64340;BME280;50674;53.290;-9.080;2022-07-06T01:25:04;103192.06;;;17.26;89.02
64340;BME280;50674;53.290;-9.080;2022-07-06T01:27:30;103189.75;;;17.20;88.84
64340;BME280;50674;53.290;-9.080;2022-07-06T01:29:56;103180.91;;;17.18;88.73
64340;BME280;50674;53.290;-9.080;2022-07-06T01:32:21;103163.56;;;17.08;88.84
64340;BME280;50674;53.290;-9.080;2022-07-06T01:34:47;103179.28;;;17.15;89.01
64340;BME280;50674;53.290;-9.080;2022-07-06T01:37:13;103175.81;;;17.13;89.05
64340;BME280;50674;53.290;-9.080;2022-07-06T01:39:38;103155.28;;;17.11;89.04
64340;BME280;50674;53.290;-9.080;2022-07-06T01:42:05;103148.44;;;17.05;89.22
64340;BME280;50674;53.290;-9.080;2022-07-06T01:44:30;103154.44;;;17.10;89.36
64340;BME280;50674;53.290;-9.080;2022-07-06T01:46:56;103148.16;;;17.10;89.36
64340;BME280;50674;53.290;-9.080;2022-07-06T01:49:21;103156.34;;;17.08;89.25
64340;BME280;50674;53.290;-9.080;2022-07-06T01:51:47;103148.38;;;17.07;89.38
64340;BME280;50674;53.290;-9.080;2022-07-06T01:54:13;103149.41;;;17.04;89.45
64340;BME280;50674;53.290;-9.080;2022-07-06T01:56:39;103147.69;;;17.03;89.31
64340;BME280;50674;53.290;-9.080;2022-07-06T01:59:06;103132.88;;;16.96;89.53
64340;BME280;50674;53.290;-9.080;2022-07-06T02:01:31;103131.16;;;16.95;89.65
64340;BME280;50674;53.290;-9.080;2022-07-06T02:03:57;103136.63;;;16.93;89.85
64340;BME280;50674;53.290;-9.080;2022-07-06T02:06:23;103145.50;;;16.96;89.81
64340;BME280;50674;53.290;-9.080;2022-07-06T02:08:51;103143.97;;;16.91;89.75
64340;BME280;50674;53.290;-9.080;2022-07-06T02:11:17;103137.72;;;16.91;90.07
64340;BME280;50674;53.290;-9.080;2022-07-06T02:13:43;103150.13;;;16.93;90.02
64340;BME280;50674;53.290;-9.080;2022-07-06T02:16:08;103143.09;;;16.91;90.12
64340;BME280;50674;53.290;-9.080;2022-07-06T02:18:34;103142.31;;;16.89;89.93
64340;BME280;50674;53.290;-9.080;2022-07-06T02:21:00;103145.81;;;16.91;89.93
64340;BME280;50674;53.290;-9.080;2022-07-06T02:23:27;103145.03;;;16.89;90.21
64340;BME280;50674;53.290;-9.080;2022-07-06T02:25:52;103138.75;;;16.88;90.27
64340;BME280;50674;53.290;-9.080;2022-07-06T02:28:18;103138.09;;;16.85;90.15
64340;BME280;50674;53.290;-9.080;2022-07-06T02:30:44;103135.19;;;16.88;90.22
64340;BME280;50674;53.290;-9.080;2022-07-06T02:33:09;103134.41;;;16.86;90.19
64340;BME280;50674;53.290;-9.080;2022-07-06T02:35:35;103136.94;;;16.89;90.07
64340;BME280;50674;53.290;-9.080;2022-07-06T02:38:04;103135.09;;;16.89;90.23
64340;BME280;50674;53.290;-9.080;2022-07-06T02:40:30;103134.22;;;16.89;90.32
64340;BME280;50674;53.290;-9.080;2022-07-06T02:42:56;103142.13;;;16.92;90.40
64340;BME280;50674;53.290;-9.080;2022-07-06T02:45:22;103139.31;;;16.93;90.60
64340;BME280;50674;53.290;-9.080;2022-07-06T02:47:47;103132.19;;;16.92;90.54
64340;BME280;50674;53.290;-9.080;2022-07-06T02:50:13;103125.94;;;16.92;90.53
64340;BME280;50674;53.290;-9.080;2022-07-06T02:52:39;103132.00;;;16.96;90.66
64340;BME280;50674;53.290;-9.080;2022-07-06T02:55:05;103139.78;;;17.00;90.59
64340;BME280;50674;53.290;-9.080;2022-07-06T02:57:31;103130.84;;;17.00;90.82
64340;BME280;50674;53.290;-9.080;2022-07-06T02:59:57;103129.97;;;16.99;90.51
64340;BME280;50674;53.290;-9.080;2022-07-06T03:02:23;103129.56;;;17.05;90.78
64340;BME280;50674;53.290;-9.080;2022-07-06T03:04:50;103125.06;;;17.06;90.82
64340;BME280;50674;53.290;-9.080;2022-07-06T03:07:15;103137.25;;;17.11;91.08
64340;BME280;50674;53.290;-9.080;2022-07-06T03:09:41;103132.25;;;17.05;90.71
64340;BME280;50674;53.290;-9.080;2022-07-06T03:12:07;103142.97;;;17.07;90.63
64340;BME280;50674;53.290;-9.080;2022-07-06T03:14:33;103128.69;;;17.05;90.78
64340;BME280;50674;53.290;-9.080;2022-07-06T03:16:58;103136.59;;;17.08;90.69
64340;BME280;50674;53.290;-9.080;2022-07-06T03:19:25;103134.09;;;17.05;90.61
64340;BME280;50674;53.290;-9.080;2022-07-06T03:21:51;103133.16;;;17.06;90.72
64340;BME280;50674;53.290;-9.080;2022-07-06T03:24:17;103126.84;;;17.05;90.62
64340;BME280;50674;53.290;-9.080;2022-07-06T03:26:42;103124.38;;;17.02;90.78
64340;BME280;50674;53.290;-9.080;2022-07-06T03:29:08;103123.28;;;17.05;90.71
64340;BME280;50674;53.290;-9.080;2022-07-06T03:31:35;103124.56;;;16.99;90.78
64340;BME280;50674;53.290;-9.080;2022-07-06T03:34:01;103129.66;;;17.04;90.72
64340;BME280;50674;53.290;-9.080;2022-07-06T03:36:26;103126.84;;;17.05;90.87
64340;BME280;50674;53.290;-9.080;2022-07-06T03:38:52;103130.34;;;17.07;90.84
64340;BME280;50674;53.290;-9.080;2022-07-06T03:41:18;103142.97;;;17.07;90.96
64340;BME280;50674;53.290;-9.080;2022-07-06T03:43:44;103134.41;;;17.00;90.93
64340;BME280;50674;53.290;-9.080;2022-07-06T03:46:10;103133.41;;;17.01;90.96
64340;BME280;50674;53.290;-9.080;2022-07-06T03:48:37;103134.94;;;17.05;90.95
64340;BME280;50674;53.290;-9.080;2022-07-06T03:51:04;103137.66;;;17.05;90.98
64340;BME280;50674;53.290;-9.080;2022-07-06T03:53:30;103129.56;;;17.05;90.97
64340;BME280;50674;53.290;-9.080;2022-07-06T03:55:57;103127.75;;;17.06;91.16
64340;BME280;50674;53.290;-9.080;2022-07-06T03:58:42;103127.81;;;17.04;91.02
64340;BME280;50674;53.290;-9.080;2022-07-06T04:01:07;103117.44;;;16.98;91.00
64340;BME280;50674;53.290;-9.080;2022-07-06T04:03:33;103131.38;;;17.05;90.97
64340;BME280;50674;53.290;-9.080;2022-07-06T04:05:59;103129.00;;;17.00;90.94
64340;BME280;50674;53.290;-9.080;2022-07-06T04:08:25;103134.28;;;17.02;91.00
64340;BME280;50674;53.290;-9.080;2022-07-06T04:10:51;103127.34;;;16.98;91.13
64340;BME280;50674;53.290;-9.080;2022-07-06T04:13:17;103125.53;;;16.98;91.17
64340;BME280;50674;53.290;-9.080;2022-07-06T04:15:43;103128.22;;;16.98;91.04
64340;BME280;50674;53.290;-9.080;2022-07-06T04:18:09;103134.59;;;16.97;91.14
64340;BME280;50674;53.290;-9.080;2022-07-06T04:20:35;103126.50;;;16.97;91.14
64340;BME280;50674;53.290;-9.080;2022-07-06T04:23:02;103126.50;;;16.97;91.12
64340;BME280;50674;53.290;-9.080;2022-07-06T04:25:28;103125.63;;;16.97;91.21
64340;BME280;50674;53.290;-9.080;2022-07-06T04:27:54;103126.50;;;16.97;91.12
64340;BME280;50674;53.290;-9.080;2022-07-06T04:30:20;103131.88;;;16.97;91.25
64340;BME280;50674;53.290;-9.080;2022-07-06T04:32:45;103126.59;;;16.96;91.17
64340;BME280;50674;53.290;-9.080;2022-07-06T04:35:11;103114.28;;;16.91;91.20
64340;BME280;50674;53.290;-9.080;2022-07-06T04:37:37;103128.34;;;16.97;91.03
64340;BME280;50674;53.290;-9.080;2022-07-06T04:40:03;103118.41;;;16.97;91.14
64340;BME280;50674;53.290;-9.080;2022-07-06T04:42:29;103115.91;;;16.94;91.17
64340;BME280;50674;53.290;-9.080;2022-07-06T04:44:56;103115.03;;;16.93;91.14
64340;BME280;50674;53.290;-9.080;2022-07-06T04:47:21;103113.97;;;16.96;91.20
64340;BME280;50674;53.290;-9.080;2022-07-06T04:49:47;103104.03;;;16.97;91.13
64340;BME280;50674;53.290;-9.080;2022-07-06T04:52:13;103108.59;;;16.96;91.09
64340;BME280;50674;53.290;-9.080;2022-07-06T04:54:38;103099.72;;;16.94;90.98
64340;BME280;50674;53.290;-9.080;2022-07-06T04:57:04;103102.13;;;16.99;91.02
64340;BME280;50674;53.290;-9.080;2022-07-06T04:59:30;103102.13;;;16.99;91.05
64340;BME280;50674;53.290;-9.080;2022-07-06T05:01:56;103092.38;;;16.96;91.03
64340;BME280;50674;53.290;-9.080;2022-07-06T05:04:23;103092.19;;;16.99;90.93
64340;BME280;50674;53.290;-9.080;2022-07-06T05:06:50;103088.72;;;16.97;90.93
64340;BME280;50674;53.290;-9.080;2022-07-06T05:09:16;103094.91;;;16.99;91.08
64340;BME280;50674;53.290;-9.080;2022-07-06T05:11:41;103102.78;;;17.02;91.06
64340;BME280;50674;53.290;-9.080;2022-07-06T05:14:08;103105.06;;;17.08;90.88
64340;BME280;50674;53.290;-9.080;2022-07-06T05:16:34;103112.41;;;17.06;90.71
64340;BME280;50674;53.290;-9.080;2022-07-06T05:19:00;103109.81;;;17.05;90.60
64340;BME280;50674;53.290;-9.080;2022-07-06T05:21:25;103116.72;;;17.09;90.66
64340;BME280;50674;53.290;-9.080;2022-07-06T05:23:51;103124.75;;;17.10;90.71
64340;BME280;50674;53.290;-9.080;2022-07-06T05:26:18;103115.78;;;17.10;90.71
64340;BME280;50674;53.290;-9.080;2022-07-06T05:28:44;103119.03;;;17.15;90.72
64340;BME280;50674;53.290;-9.080;2022-07-06T05:31:10;103117.31;;;17.14;90.75
64340;BME280;50674;53.290;-9.080;2022-07-06T05:33:35;103128.66;;;17.19;90.50
64340;BME280;50674;53.290;-9.080;2022-07-06T05:36:01;103118.16;;;17.14;90.40
64340;BME280;50674;53.290;-9.080;2022-07-06T05:38:26;103135.69;;;17.22;90.58
64340;BME280;50674;53.290;-9.080;2022-07-06T05:40:52;103131.16;;;17.22;90.56
64340;BME280;50674;53.290;-9.080;2022-07-06T05:43:20;103132.13;;;17.21;90.84
64340;BME280;50674;53.290;-9.080;2022-07-06T05:45:46;103132.13;;;17.21;90.60
64340;BME280;50674;53.290;-9.080;2022-07-06T05:48:12;103132.00;;;17.23;90.60
64340;BME280;50674;53.290;-9.080;2022-07-06T05:51:14;103126.81;;;17.20;90.82
64340;BME280;50674;53.290;-9.080;2022-07-06T05:53:39;103125.63;;;17.24;90.63
64340;BME280;50674;53.290;-9.080;2022-07-06T05:56:05;103131.81;;;17.26;90.65
64340;BME280;50674;53.290;-9.080;2022-07-06T05:58:31;103125.44;;;17.27;90.61
64340;BME280;50674;53.290;-9.080;2022-07-06T06:00:57;103135.19;;;17.29;90.67
64340;BME280;50674;53.290;-9.080;2022-07-06T06:03:23;103131.50;;;17.30;90.62
64340;BME280;50674;53.290;-9.080;2022-07-06T06:05:49;103133.81;;;17.36;90.66
64340;BME280;50674;53.290;-9.080;2022-07-06T06:08:15;103133.16;;;17.33;90.54
64340;BME280;50674;53.290;-9.080;2022-07-06T06:10:42;103129.47;;;17.34;90.61
64340;BME280;50674;53.290;-9.080;2022-07-06T06:13:08;103135.66;;;17.36;90.47
64340;BME280;50674;53.290;-9.080;2022-07-06T06:15:33;103136.38;;;17.38;90.33
64340;BME280;50674;53.290;-9.080;2022-07-06T06:18:00;103133.88;;;17.35;90.45
64340;BME280;50674;53.290;-9.080;2022-07-06T06:20:26;103124.22;;;17.45;90.31
64340;BME280;50674;53.290;-9.080;2022-07-06T06:22:57;103128.94;;;17.41;90.35
64340;BME280;50674;53.290;-9.080;2022-07-06T06:25:33;103124.41;;;17.42;90.26
64340;BME280;50674;53.290;-9.080;2022-07-06T06:28:00;103130.47;;;17.46;90.14
64340;BME280;50674;53.290;-9.080;2022-07-06T06:30:26;103132.31;;;17.45;90.10
64340;BME280;50674;53.290;-9.080;2022-07-06T06:33:14;103133.84;;;17.49;90.10
64340;BME280;50674;53.290;-9.080;2022-07-06T06:35:45;103132.97;;;17.49;90.05
64340;BME280;50674;53.290;-9.080;2022-07-06T06:38:11;103132.13;;;17.48;90.05
64340;BME280;50674;53.290;-9.080;2022-07-06T06:40:37;103133.09;;;17.47;89.93
64340;BME280;50674;53.290;-9.080;2022-07-06T06:43:03;103142.50;;;17.54;89.83
64340;BME280;50674;53.290;-9.080;2022-07-06T06:45:29;103135.59;;;17.50;89.91
64340;BME280;50674;53.290;-9.080;2022-07-06T06:47:55;103137.78;;;17.58;89.77
64340;BME280;50674;53.290;-9.080;2022-07-06T06:50:21;103127.06;;;17.56;89.74
64340;BME280;50674;53.290;-9.080;2022-07-06T06:52:49;103134.84;;;17.61;89.94
64340;BME280;50674;53.290;-9.080;2022-07-06T06:55:16;103124.66;;;17.52;89.73
64340;BME280;50674;53.290;-9.080;2022-07-06T06:57:42;103152.69;;;17.63;89.72
64340;BME280;50674;53.290;-9.080;2022-07-06T07:00:08;103146.41;;;17.63;89.69
64340;BME280;50674;53.290;-9.080;2022-07-06T07:02:35;103141.88;;;17.63;89.86
64340;BME280;50674;53.290;-9.080;2022-07-06T07:05:03;103141.88;;;17.63;89.76
64340;BME280;50674;53.290;-9.080;2022-07-06T07:07:28;103143.59;;;17.64;89.83
64340;BME280;50674;53.290;-9.080;2022-07-06T07:09:54;103145.34;;;17.65;89.87
64340;BME280;50674;53.290;-9.080;2022-07-06T07:12:20;103147.06;;;17.66;89.87
64340;BME280;50674;53.290;-9.080;2022-07-06T07:14:46;103141.47;;;17.70;89.81
64340;BME280;50674;53.290;-9.080;2022-07-06T07:17:13;103139.50;;;17.72;89.97
64340;BME280;50674;53.290;-9.080;2022-07-06T07:19:40;103143.84;;;17.74;89.82
64340;BME280;50674;53.290;-9.080;2022-07-06T07:22:06;103138.38;;;17.76;89.89
64340;BME280;50674;53.290;-9.080;2022-07-06T07:24:32;103127.84;;;17.71;89.80
64340;BME280;50674;53.290;-9.080;2022-07-06T07:26:57;103137.50;;;17.75;90.09
64340;BME280;50674;53.290;-9.080;2022-07-06T07:29:24;103133.03;;;17.74;90.15
64340;BME280;50674;53.290;-9.080;2022-07-06T07:31:50;103136.97;;;17.83;90.06
64340;BME280;50674;53.290;-9.080;2022-07-06T07:34:16;103129.19;;;17.78;90.25
64340;BME280;50674;53.290;-9.080;2022-07-06T07:36:42;103134.84;;;17.88;90.29
64340;BME280;50674;53.290;-9.080;2022-07-06T07:39:08;103132.78;;;17.92;90.30
64340;BME280;50674;53.290;-9.080;2022-07-06T07:41:34;103136.88;;;17.97;90.37
64340;BME280;50674;53.290;-9.080;2022-07-06T07:44:00;103133.97;;;18.00;90.10
64340;BME280;50674;53.290;-9.080;2022-07-06T07:46:26;103141.44;;;18.09;89.93
64340;BME280;50674;53.290;-9.080;2022-07-06T07:48:51;103147.28;;;18.16;89.86
64340;BME280;50674;53.290;-9.080;2022-07-06T07:51:17;103145.00;;;18.23;89.78
64340;BME280;50674;53.290;-9.080;2022-07-06T07:53:44;103146.31;;;18.30;89.51
64340;BME280;50674;53.290;-9.080;2022-07-06T07:56:11;103152.34;;;18.46;89.39
64340;BME280;50674;53.290;-9.080;2022-07-06T07:58:36;103153.00;;;18.62;89.37
64340;BME280;50674;53.290;-9.080;2022-07-06T08:01:03;103147.25;;;18.67;88.98
64340;BME280;50674;53.290;-9.080;2022-07-06T08:03:31;103142.09;;;18.77;88.77
64340;BME280;50674;53.290;-9.080;2022-07-06T08:05:57;103143.38;;;18.84;88.84
64340;BME280;50674;53.290;-9.080;2022-07-06T08:08:23;103137.28;;;18.93;87.86
64340;BME280;50674;53.290;-9.080;2022-07-06T08:10:50;103137.41;;;18.92;87.99
64340;BME280;50674;53.290;-9.080;2022-07-06T08:13:15;103135.66;;;18.91;87.82
64340;BME280;50674;53.290;-9.080;2022-07-06T08:15:41;103145.38;;;18.93;87.64
64340;BME280;50674;53.290;-9.080;2022-07-06T08:18:08;103147.25;;;18.93;87.58
64340;BME280;50674;53.290;-9.080;2022-07-06T08:20:36;103143.66;;;18.92;87.50
64340;BME280;50674;53.290;-9.080;2022-07-06T08:23:02;103131.34;;;18.88;87.25
64340;BME280;50674;53.290;-9.080;2022-07-06T08:25:28;103146.38;;;18.92;87.08
64340;BME280;50674;53.290;-9.080;2022-07-06T08:27:54;103141.81;;;18.93;86.94
64340;BME280;50674;53.290;-9.080;2022-07-06T08:30:20;103149.94;;;18.93;86.79
64340;BME280;50674;53.290;-9.080;2022-07-06T08:32:46;103147.97;;;18.95;86.66
64340;BME280;50674;53.290;-9.080;2022-07-06T08:35:12;103145.91;;;18.98;86.42
64340;BME280;50674;53.290;-9.080;2022-07-06T08:37:38;103139.53;;;18.99;86.27
64340;BME280;50674;53.290;-9.080;2022-07-06T08:40:05;103151.00;;;19.03;86.32
64340;BME280;50674;53.290;-9.080;2022-07-06T08:42:33;103150.88;;;19.04;86.15
64340;BME280;50674;53.290;-9.080;2022-07-06T08:45:01;103149.25;;;19.02;86.11
64340;BME280;50674;53.290;-9.080;2022-07-06T08:47:28;103142.88;;;19.03;85.89
64340;BME280;50674;53.290;-9.080;2022-07-06T08:49:55;103140.81;;;19.06;85.72
64340;BME280;50674;53.290;-9.080;2022-07-06T08:52:22;103144.47;;;19.05;85.69
64340;BME280;50674;53.290;-9.080;2022-07-06T08:57:36;103147.94;;;19.07;85.36
64340;BME280;50674;53.290;-9.080;2022-07-06T09:00:07;103147.19;;;19.05;85.27
64340;BME280;50674;53.290;-9.080;2022-07-06T09:02:34;103149.88;;;19.05;85.18
64340;BME280;50674;53.290;-9.080;2022-07-06T09:05:02;103132.38;;;18.98;85.18
64340;BME280;50674;53.290;-9.080;2022-07-06T09:07:29;103152.38;;;19.08;85.29
64340;BME280;50674;53.290;-9.080;2022-07-06T09:09:56;103151.38;;;19.09;84.98
64340;BME280;50674;53.290;-9.080;2022-07-06T09:12:26;103149.09;;;19.16;84.85
64340;BME280;50674;53.290;-9.080;2022-07-06T09:14:55;103150.78;;;19.30;84.94
64340;BME280;50674;53.290;-9.080;2022-07-06T09:17:25;103145.66;;;19.38;84.53
64340;BME280;50674;53.290;-9.080;2022-07-06T09:19:53;103139.88;;;19.43;84.28
64340;BME280;50674;53.290;-9.080;2022-07-06T09:22:32;103140.28;;;19.49;84.17
64340;BME280;50674;53.290;-9.080;2022-07-06T09:25:10;103145.59;;;19.51;84.12
64340;BME280;50674;53.290;-9.080;2022-07-06T09:27:38;103140.28;;;19.49;84.00
64340;BME280;50674;53.290;-9.080;2022-07-06T09:30:06;103128.00;;;19.56;83.92
64340;BME280;50674;53.290;-9.080;2022-07-06T09:32:41;103129.28;;;19.64;83.64
64340;BME280;50674;53.290;-9.080;2022-07-06T09:35:09;103130.19;;;19.75;83.48
64340;BME280;50674;53.290;-9.080;2022-07-06T09:37:44;103130.13;;;19.88;83.04
64340;BME280;50674;53.290;-9.080;2022-07-06T09:40:19;103134.09;;;19.95;83.12
64340;BME280;50674;53.290;-9.080;2022-07-06T09:42:45;103128.53;;;19.97;82.93
64340;BME280;50674;53.290;-9.080;2022-07-06T09:45:11;103138.41;;;20.09;82.67
64340;BME280;50674;53.290;-9.080;2022-07-06T09:47:37;103143.22;;;20.17;82.53
64340;BME280;50674;53.290;-9.080;2022-07-06T09:50:06;103140.03;;;20.23;82.50
64340;BME280;50674;53.290;-9.080;2022-07-06T09:52:35;103137.47;;;20.33;81.91
64340;BME280;50674;53.290;-9.080;2022-07-06T09:55:06;103147.00;;;20.49;81.83
64340;BME280;50674;53.290;-9.080;2022-07-06T09:57:32;103133.19;;;20.52;81.78
64340;BME280;50674;53.290;-9.080;2022-07-06T09:59:58;103145.03;;;20.63;81.38
64340;BME280;50674;53.290;-9.080;2022-07-06T10:02:24;103136.03;;;20.62;80.98
64340;BME280;50674;53.290;-9.080;2022-07-06T10:04:55;103125.28;;;20.61;81.05
64340;BME280;50674;53.290;-9.080;2022-07-06T10:07:22;103143.78;;;20.78;80.83
64340;BME280;50674;53.290;-9.080;2022-07-06T10:09:50;103141.78;;;20.80;80.75
64340;BME280;50674;53.290;-9.080;2022-07-06T10:12:17;103126.63;;;20.77;80.60
64340;BME280;50674;53.290;-9.080;2022-07-06T10:14:44;103134.16;;;20.74;80.57
64340;BME280;50674;53.290;-9.080;2022-07-06T10:17:12;103129.22;;;20.68;80.75
64340;BME280;50674;53.290;-9.080;2022-07-06T10:19:39;103137.38;;;20.57;81.01
64340;BME280;50674;53.290;-9.080;2022-07-06T10:22:06;103135.72;;;20.43;81.13
64340;BME280;50674;53.290;-9.080;2022-07-06T10:24:34;103137.47;;;20.33;81.35
64340;BME280;50674;53.290;-9.080;2022-07-06T10:27:05;103132.03;;;20.21;81.53
64340;BME280;50674;53.290;-9.080;2022-07-06T10:29:32;103135.19;;;20.04;81.99
64340;BME280;50674;53.290;-9.080;2022-07-06T10:31:59;103137.88;;;19.93;82.42
64340;BME280;50674;53.290;-9.080;2022-07-06T10:34:27;103140.31;;;19.73;82.71
64340;BME280;50674;53.290;-9.080;2022-07-06T10:36:53;103137.63;;;19.61;83.19
64340;BME280;50674;53.290;-9.080;2022-07-06T10:39:33;103140.81;;;19.54;83.58
64340;BME280;50674;53.290;-9.080;2022-07-06T10:42:41;103137.56;;;19.49;84.00
64340;BME280;50674;53.290;-9.080;2022-07-06T10:45:09;103142.59;;;19.43;84.11
64340;BME280;50674;53.290;-9.080;2022-07-06T10:47:35;103145.56;;;19.40;84.46
64340;BME280;50674;53.290;-9.080;2022-07-06T10:50:02;103130.97;;;19.29;84.60
64340;BME280;50674;53.290;-9.080;2022-07-06T10:52:48;103144.28;;;19.32;84.84
64340;BME280;50674;53.290;-9.080;2022-07-06T10:55:58;103146.13;;;19.32;84.89
64340;BME280;50674;53.290;-9.080;2022-07-06T10:58:05;103146.59;;;19.26;84.94
64340;BME280;50674;53.290;-9.080;2022-07-06T11:00:57;103143.88;;;19.26;85.26
64340;BME280;50674;53.290;-9.080;2022-07-06T11:03:44;103144.84;;;19.25;85.32
64340;BME280;50674;53.290;-9.080;2022-07-06T11:06:17;103146.81;;;19.23;85.55
64340;BME280;50674;53.290;-9.080;2022-07-06T11:08:56;103136.97;;;19.22;85.79
64340;BME280;50674;53.290;-9.080;2022-07-06T11:11:26;103137.94;;;19.21;85.75
64340;BME280;50674;53.290;-9.080;2022-07-06T11:17:17;103135.75;;;19.26;86.02
64340;BME280;50674;53.290;-9.080;2022-07-06T11:22:11;103135.41;;;19.30;86.21
64340;BME280;50674;53.290;-9.080;2022-07-06T11:24:40;103131.81;;;19.30;86.26
64340;BME280;50674;53.290;-9.080;2022-07-06T11:27:07;103116.88;;;19.24;86.13
64340;BME280;50674;53.290;-9.080;2022-07-06T11:29:35;103134.19;;;19.34;86.18
64340;BME280;50674;53.290;-9.080;2022-07-06T11:32:05;103132.66;;;19.43;86.06
64340;BME280;50674;53.290;-9.080;2022-07-06T11:34:36;103127.50;;;19.51;85.89
64340;BME280;50674;53.290;-9.080;2022-07-06T11:37:15;103123.88;;;19.64;85.87
64340;BME280;50674;53.290;-9.080;2022-07-06T11:39:42;103121.09;;;19.76;85.71
64340;BME280;50674;53.290;-9.080;2022-07-06T11:42:11;103110.16;;;19.89;85.40
64340;BME280;50674;53.290;-9.080;2022-07-06T11:44:38;103120.03;;;20.01;85.16
64340;BME280;50674;53.290;-9.080;2022-07-06T11:47:07;103106.00;;;20.08;85.07
64340;BME280;50674;53.290;-9.080;2022-07-06T11:49:34;103105.25;;;20.17;84.76
64340;BME280;50674;53.290;-9.080;2022-07-06T11:52:06;103111.19;;;20.33;84.72
64340;BME280;50674;53.290;-9.080;2022-07-06T11:54:32;103120.09;;;20.58;84.06
64340;BME280;50674;53.290;-9.080;2022-07-06T11:56:59;103115.13;;;20.96;83.57
64340;BME280;50674;53.290;-9.080;2022-07-06T11:59:27;103111.44;;;21.30;82.84
64340;BME280;50674;53.290;-9.080;2022-07-06T12:02:01;103108.00;;;21.60;82.14
64340;BME280;50674;53.290;-9.080;2022-07-06T12:04:29;103106.19;;;22.12;81.12
64340;BME280;50674;53.290;-9.080;2022-07-06T12:07:06;103099.19;;;22.40;80.33
64340;BME280;50674;53.290;-9.080;2022-07-06T12:09:37;103104.81;;;22.48;79.63
64340;BME280;50674;53.290;-9.080;2022-07-06T12:12:04;103106.25;;;22.52;79.09
64340;BME280;50674;53.290;-9.080;2022-07-06T12:14:33;103106.47;;;22.39;78.69
64340;BME280;50674;53.290;-9.080;2022-07-06T12:17:10;103092.38;;;22.25;78.22
64340;BME280;50674;53.290;-9.080;2022-07-06T12:19:37;103104.47;;;22.11;78.57
64340;BME280;50674;53.290;-9.080;2022-07-06T12:22:04;103118.22;;;21.88;79.09
64340;BME280;50674;53.290;-9.080;2022-07-06T12:24:32;103115.03;;;21.62;79.01
64340;BME280;50674;53.290;-9.080;2022-07-06T12:27:09;103109.06;;;21.47;79.49
64340;BME280;50674;53.290;-9.080;2022-07-06T12:29:37;103115.75;;;21.32;79.91
64340;BME280;50674;53.290;-9.080;2022-07-06T12:32:03;103117.41;;;21.12;80.40
64340;BME280;50674;53.290;-9.080;2022-07-06T12:34:31;103124.25;;;20.95;80.72
64340;BME280;50674;53.290;-9.080;2022-07-06T12:37:05;103132.53;;;20.83;81.22
64340;BME280;50674;53.290;-9.080;2022-07-06T12:39:31;103136.50;;;20.67;81.43
64340;BME280;50674;53.290;-9.080;2022-07-06T12:42:02;103131.66;;;20.48;81.88
64340;BME280;50674;53.290;-9.080;2022-07-06T12:44:29;103133.75;;;20.34;82.03
64340;BME280;50674;53.290;-9.080;2022-07-06T12:47:06;103128.69;;;20.18;82.51
64340;BME280;50674;53.290;-9.080;2022-07-06T12:49:35;103123.09;;;19.97;82.92
64340;BME280;50674;53.290;-9.080;2022-07-06T12:54:31;103133.13;;;19.72;83.67